createdAt,value
2023-07-03T00:00:32.814Z,362.00
2023-07-03T00:01:32.913Z,362.00
2023-07-03T00:02:33.005Z,364.00
2023-07-03T00:03:33.022Z,365.00
2023-07-03T00:04:33.103Z,365.00
2023-07-03T00:05:33.267Z,368.00
2023-07-03T00:06:33.227Z,368.00
2023-07-03T00:07:33.286Z,370.00
2023-07-03T00:08:33.338Z,368.00
2023-07-03T00:09:33.386Z,365.00
2023-07-03T00:10:33.460Z,363.00
2023-07-03T00:11:33.508Z,364.00
2023-07-03T00:12:33.535Z,366.00
2023-07-03T00:13:33.678Z,366.00
2023-07-03T00:14:33.685Z,367.00
2023-07-03T00:15:33.884Z,365.00
2023-07-03T00:16:33.819Z,364.00
2023-07-03T00:17:33.909Z,363.00
2023-07-03T00:18:33.922Z,365.00
2023-07-03T00:19:33.977Z,367.00
2023-07-03T00:20:34.031Z,364.00
2023-07-03T00:21:34.080Z,364.00
2023-07-03T00:22:34.161Z,364.00
2023-07-03T00:23:34.253Z,363.00
2023-07-03T00:24:34.270Z,363.00
2023-07-03T00:25:34.330Z,362.00
2023-07-03T00:26:34.376Z,362.00
2023-07-03T00:27:34.383Z,360.00
2023-07-03T00:28:34.466Z,358.00
2023-07-03T00:29:34.500Z,358.00
2023-07-03T00:30:34.567Z,357.00
2023-07-03T00:31:34.597Z,357.00
2023-07-03T00:32:34.643Z,358.00
2023-07-03T00:33:34.638Z,358.00
2023-07-03T00:34:34.690Z,357.00
2023-07-03T00:35:34.726Z,356.00
2023-07-03T00:36:34.771Z,356.00
2023-07-03T00:37:34.800Z,356.00
2023-07-03T00:38:34.830Z,358.00
2023-07-03T00:39:34.878Z,358.00
2023-07-03T00:40:34.879Z,357.00
2023-07-03T00:41:34.935Z,359.00
2023-07-03T00:42:34.931Z,361.00
2023-07-03T00:43:35.006Z,361.00
2023-07-03T00:44:35.006Z,362.00
2023-07-03T00:45:35.075Z,361.00
2023-07-03T00:46:35.161Z,360.00
2023-07-03T00:47:35.181Z,361.00
2023-07-03T00:48:35.197Z,362.00
2023-07-03T00:49:35.188Z,360.00
2023-07-03T00:50:35.258Z,359.00
2023-07-03T00:51:35.320Z,357.00
2023-07-03T00:52:35.322Z,355.00
2023-07-03T00:53:35.382Z,357.00
2023-07-03T00:54:35.433Z,356.00
2023-07-03T00:55:35.451Z,356.00
2023-07-03T00:56:35.568Z,356.00
2023-07-03T00:57:35.617Z,356.00
2023-07-03T00:58:35.618Z,353.00
2023-07-03T00:59:35.670Z,352.00
2023-07-03T01:00:35.734Z,353.00
2023-07-03T01:01:35.811Z,355.00
2023-07-03T01:02:35.789Z,358.00
2023-07-03T01:03:35.781Z,357.00
2023-07-03T01:04:36.012Z,356.00
2023-07-03T01:05:36.039Z,356.00
2023-07-03T01:06:35.930Z,355.00
2023-07-03T01:07:35.996Z,356.00
2023-07-03T01:08:35.996Z,357.00
2023-07-03T01:09:36.024Z,356.00
2023-07-03T01:10:36.059Z,356.00
2023-07-03T01:11:36.069Z,357.00
2023-07-03T01:12:36.086Z,358.00
2023-07-03T01:13:36.147Z,356.00
2023-07-03T01:14:36.208Z,355.00
2023-07-03T01:15:36.191Z,352.00
2023-07-03T01:16:36.284Z,352.00
2023-07-03T01:17:36.258Z,350.00
2023-07-03T01:18:36.220Z,351.00
2023-07-03T01:19:36.281Z,351.00
2023-07-03T01:20:36.234Z,350.00
2023-07-03T01:21:36.300Z,354.00
2023-07-03T01:22:36.300Z,353.00
2023-07-03T01:23:36.298Z,355.00
2023-07-03T01:24:36.311Z,355.00
2023-07-03T01:25:36.338Z,354.00
2023-07-03T01:26:36.325Z,352.00
2023-07-03T01:27:36.382Z,353.00
2023-07-03T01:28:36.341Z,353.00
2023-07-03T01:29:36.317Z,353.00
2023-07-03T01:30:36.368Z,353.00
2023-07-03T01:31:36.451Z,352.00
2023-07-03T01:32:36.404Z,350.00
2023-07-03T01:33:36.382Z,351.00
2023-07-03T01:34:36.380Z,351.00
2023-07-03T01:35:36.387Z,351.00
2023-07-03T01:36:36.396Z,352.00
2023-07-03T01:37:36.410Z,354.00
2023-07-03T01:38:36.412Z,354.00
2023-07-03T01:39:36.426Z,354.00
2023-07-03T01:40:36.426Z,353.00
2023-07-03T01:41:36.471Z,353.00
2023-07-03T01:42:36.484Z,354.00
2023-07-03T01:43:36.484Z,354.00
2023-07-03T01:44:36.490Z,354.00
2023-07-03T01:45:36.558Z,354.00
2023-07-03T01:46:36.689Z,353.00
2023-07-03T01:47:36.626Z,350.00
2023-07-03T01:48:36.574Z,349.00
2023-07-03T01:49:36.628Z,349.00
2023-07-03T01:50:36.660Z,352.00
2023-07-03T01:51:36.664Z,351.00
2023-07-03T01:52:36.827Z,350.00
2023-07-03T01:53:36.774Z,349.00
2023-07-03T01:54:36.796Z,351.00
2023-07-03T01:55:36.752Z,350.00
2023-07-03T01:56:36.839Z,351.00
2023-07-03T01:57:36.850Z,352.00
2023-07-03T01:58:36.861Z,352.00
2023-07-03T01:59:36.858Z,353.00
2023-07-03T02:00:36.926Z,354.00
2023-07-03T02:01:36.961Z,351.00
2023-07-03T02:02:37.069Z,350.00
2023-07-03T02:03:37.072Z,352.00
2023-07-03T02:04:37.059Z,352.00
2023-07-03T02:05:37.066Z,351.00
2023-07-03T02:06:37.070Z,353.00
2023-07-03T02:07:37.128Z,354.00
2023-07-03T02:08:37.128Z,352.00
2023-07-03T02:09:37.084Z,352.00
2023-07-03T02:10:37.255Z,352.00
2023-07-03T02:11:37.149Z,353.00
2023-07-03T02:12:37.158Z,353.00
2023-07-03T02:13:37.169Z,354.00
2023-07-03T02:14:37.162Z,354.00
2023-07-03T02:15:37.170Z,355.00
2023-07-03T02:16:37.201Z,356.00
2023-07-03T02:17:37.230Z,355.00
2023-07-03T02:18:37.198Z,355.00
2023-07-03T02:19:37.187Z,353.00
2023-07-03T02:20:37.212Z,354.00
2023-07-03T02:21:37.180Z,354.00
2023-07-03T02:22:39.371Z,353.00
2023-07-03T02:23:37.176Z,354.00
2023-07-03T02:24:37.205Z,354.00
2023-07-03T02:25:37.135Z,356.00
2023-07-03T02:26:37.147Z,358.00
2023-07-03T02:27:37.160Z,357.00
2023-07-03T02:28:37.208Z,356.00
2023-07-03T02:29:37.194Z,355.00
2023-07-03T02:30:37.153Z,355.00
2023-07-03T02:31:37.141Z,353.00
2023-07-03T02:32:37.826Z,353.00
2023-07-03T02:33:37.095Z,353.00
2023-07-03T02:34:37.098Z,352.00
2023-07-03T02:35:37.053Z,352.00
2023-07-03T02:36:37.113Z,352.00
2023-07-03T02:37:37.111Z,351.00
2023-07-03T02:38:37.085Z,352.00
2023-07-03T02:39:37.054Z,351.00
2023-07-03T02:40:37.107Z,352.00
2023-07-03T02:41:37.049Z,355.00
2023-07-03T02:42:37.056Z,356.00
2023-07-03T02:43:37.022Z,357.00
2023-07-03T02:44:37.070Z,356.00
2023-07-03T02:45:37.046Z,356.00
2023-07-03T02:46:37.091Z,358.00
2023-07-03T02:47:37.180Z,357.00
2023-07-03T02:48:36.987Z,354.00
2023-07-03T02:49:37.028Z,353.00
2023-07-03T02:50:37.014Z,353.00
2023-07-03T02:51:36.966Z,356.00
2023-07-03T02:52:37.021Z,354.00
2023-07-03T02:53:36.976Z,352.00
2023-07-03T02:54:36.947Z,353.00
2023-07-03T02:55:36.921Z,353.00
2023-07-03T02:56:36.936Z,352.00
2023-07-03T02:57:36.918Z,351.00
2023-07-03T02:58:36.904Z,349.00
2023-07-03T02:59:36.896Z,348.00
2023-07-03T03:00:36.951Z,351.00
2023-07-03T03:01:36.907Z,351.00
2023-07-03T03:02:36.990Z,351.00
2023-07-03T03:03:36.973Z,349.00
2023-07-03T03:04:36.983Z,349.00
2023-07-03T03:05:36.899Z,350.00
2023-07-03T03:06:36.972Z,351.00
2023-07-03T03:07:36.851Z,350.00
2023-07-03T03:08:36.863Z,349.00
2023-07-03T03:09:36.840Z,350.00
2023-07-03T03:10:36.856Z,351.00
2023-07-03T03:11:36.790Z,352.00
2023-07-03T03:12:36.788Z,352.00
2023-07-03T03:13:36.852Z,352.00
2023-07-03T03:14:36.816Z,351.00
2023-07-03T03:15:36.812Z,351.00
2023-07-03T03:16:36.856Z,351.00
2023-07-03T03:17:37.360Z,352.00
2023-07-03T03:18:36.779Z,351.00
2023-07-03T03:19:36.774Z,351.00
2023-07-03T03:20:36.754Z,350.00
2023-07-03T03:21:36.757Z,350.00
2023-07-03T03:22:36.797Z,351.00
2023-07-03T03:23:36.736Z,351.00
2023-07-03T03:24:36.740Z,352.00
2023-07-03T03:25:36.729Z,351.00
2023-07-03T03:26:36.725Z,352.00
2023-07-03T03:27:36.695Z,354.00
2023-07-03T03:28:36.714Z,355.00
2023-07-03T03:29:36.725Z,355.00
2023-07-03T03:30:36.719Z,355.00
2023-07-03T03:31:36.721Z,354.00
2023-07-03T03:32:36.707Z,356.00
2023-07-03T03:33:36.662Z,354.00
2023-07-03T03:34:36.661Z,354.00
2023-07-03T03:35:36.690Z,354.00
2023-07-03T03:36:36.671Z,354.00
2023-07-03T03:37:36.659Z,356.00
2023-07-03T03:38:36.612Z,353.00
2023-07-03T03:39:36.617Z,353.00
2023-07-03T03:40:36.734Z,353.00
2023-07-03T03:41:36.647Z,353.00
2023-07-03T03:42:36.632Z,353.00
2023-07-03T03:43:36.588Z,349.00
2023-07-03T03:44:36.609Z,349.00
2023-07-03T03:45:36.594Z,350.00
2023-07-03T03:46:36.652Z,351.00
2023-07-03T03:47:36.632Z,351.00
2023-07-03T03:48:36.799Z,352.00
2023-07-03T03:49:36.569Z,350.00
2023-07-03T03:50:36.520Z,349.00
2023-07-03T03:51:36.545Z,349.00
2023-07-03T03:52:36.530Z,350.00
2023-07-03T03:53:36.536Z,350.00
2023-07-03T03:54:36.509Z,349.00
2023-07-03T03:55:36.511Z,348.00
2023-07-03T03:56:36.492Z,346.00
2023-07-03T03:57:36.541Z,346.00
2023-07-03T03:58:36.529Z,346.00
2023-07-03T03:59:36.497Z,345.00
2023-07-03T04:00:36.480Z,348.00
2023-07-03T04:01:36.525Z,348.00
2023-07-03T04:02:36.548Z,349.00
2023-07-03T04:03:36.471Z,348.00
2023-07-03T04:04:36.574Z,351.00
2023-07-03T04:05:36.429Z,355.00
2023-07-03T04:06:36.429Z,358.00
2023-07-03T04:07:36.414Z,359.00
2023-07-03T04:08:36.406Z,361.00
2023-07-03T04:09:36.418Z,365.00
2023-07-03T04:10:36.427Z,368.00
2023-07-03T04:11:36.410Z,372.00
2023-07-03T04:12:36.437Z,376.00
2023-07-03T04:13:36.414Z,377.00
2023-07-03T04:14:36.387Z,378.00
2023-07-03T04:15:36.376Z,377.00
2023-07-03T04:16:36.398Z,384.00
2023-07-03T04:17:36.371Z,388.00
2023-07-03T04:18:36.342Z,390.00
2023-07-03T04:19:36.362Z,390.00
2023-07-03T04:20:36.328Z,394.00
2023-07-03T04:21:36.364Z,398.00
2023-07-03T04:22:36.326Z,399.00
2023-07-03T04:23:36.314Z,400.00
2023-07-03T04:24:36.313Z,402.00
2023-07-03T04:25:36.319Z,403.00
2023-07-03T04:26:36.277Z,404.00
2023-07-03T04:27:36.292Z,407.00
2023-07-03T04:28:36.328Z,408.00
2023-07-03T04:29:36.264Z,407.00
2023-07-03T04:30:36.247Z,410.00
2023-07-03T04:31:36.266Z,412.00
2023-07-03T04:32:38.266Z,417.00
2023-07-03T04:33:36.273Z,415.00
2023-07-03T04:34:36.321Z,416.00
2023-07-03T04:35:36.330Z,418.00
2023-07-03T04:36:36.410Z,417.00
2023-07-03T04:37:36.435Z,417.00
2023-07-03T04:38:36.432Z,414.00
2023-07-03T04:39:36.442Z,416.00
2023-07-03T04:40:36.499Z,418.00
2023-07-03T04:41:36.545Z,417.00
2023-07-03T04:42:36.574Z,418.00
2023-07-03T04:43:36.644Z,419.00
2023-07-03T04:44:36.686Z,417.00
2023-07-03T04:45:36.713Z,416.00
2023-07-03T04:46:36.750Z,414.00
2023-07-03T04:47:36.791Z,415.00
2023-07-03T04:48:36.799Z,415.00
2023-07-03T04:49:36.845Z,415.00
2023-07-03T04:50:36.887Z,414.00
2023-07-03T04:51:36.882Z,414.00
2023-07-03T04:52:36.883Z,414.00
2023-07-03T04:53:36.958Z,415.00
2023-07-03T04:54:36.927Z,415.00
2023-07-03T04:55:36.980Z,415.00
2023-07-03T04:56:36.997Z,412.00
2023-07-03T04:57:37.074Z,412.00
2023-07-03T04:58:37.061Z,412.00
2023-07-03T04:59:37.113Z,411.00
2023-07-03T05:00:37.165Z,412.00
2023-07-03T05:01:37.187Z,411.00
2023-07-03T05:02:37.265Z,407.00
2023-07-03T05:03:37.241Z,407.00
2023-07-03T05:04:37.355Z,408.00
2023-07-03T05:05:37.301Z,409.00
2023-07-03T05:06:37.321Z,411.00
2023-07-03T05:07:37.328Z,410.00
2023-07-03T05:08:37.378Z,409.00
2023-07-03T05:09:37.418Z,413.00
2023-07-03T05:10:37.444Z,414.00
2023-07-03T05:11:37.501Z,415.00
2023-07-03T05:12:37.605Z,417.00
2023-07-03T05:13:37.548Z,416.00
2023-07-03T05:14:37.555Z,415.00
2023-07-03T05:15:37.732Z,413.00
2023-07-03T05:16:37.629Z,412.00
2023-07-03T05:17:37.708Z,413.00
2023-07-03T05:18:37.731Z,413.00
2023-07-03T05:19:37.714Z,411.00
2023-07-03T05:20:37.794Z,413.00
2023-07-03T05:21:37.800Z,412.00
2023-07-03T05:22:37.836Z,413.00
2023-07-03T05:23:37.979Z,414.00
2023-07-03T05:24:37.925Z,414.00
2023-07-03T05:25:38.010Z,415.00
2023-07-03T05:26:38.019Z,415.00
2023-07-03T05:27:38.018Z,416.00
2023-07-03T05:28:38.036Z,417.00
2023-07-03T05:29:38.106Z,418.00
2023-07-03T05:30:38.172Z,419.00
2023-07-03T05:31:38.257Z,421.00
2023-07-03T05:32:38.262Z,425.00
2023-07-03T05:33:38.520Z,430.00
2023-07-03T05:34:38.929Z,436.00
2023-07-03T05:35:48.466Z,446.00
2023-07-03T05:36:39.423Z,457.00
2023-07-03T05:37:38.493Z,463.00
2023-07-03T05:38:39.050Z,466.00
2023-07-03T05:39:38.398Z,469.00
2023-07-03T05:40:39.214Z,474.00
2023-07-03T05:41:38.310Z,473.00
2023-07-03T05:42:38.321Z,529.00
2023-07-03T05:43:38.303Z,514.00
2023-07-03T05:44:38.308Z,519.00
2023-07-03T05:45:38.277Z,525.00
2023-07-03T05:46:38.276Z,534.00
2023-07-03T05:47:38.318Z,536.00
2023-07-03T05:48:38.231Z,592.00
2023-07-03T05:49:38.277Z,637.00
2023-07-03T05:50:38.274Z,636.00
2023-07-03T05:51:38.240Z,636.00
2023-07-03T05:52:38.283Z,639.00
2023-07-03T05:53:38.411Z,640.00
2023-07-03T05:54:38.361Z,647.00
2023-07-03T05:55:38.304Z,651.00
2023-07-03T05:56:38.284Z,660.00
2023-07-03T05:57:38.322Z,682.00
2023-07-03T05:58:38.412Z,685.00
2023-07-03T05:59:38.407Z,689.00
2023-07-03T06:00:39.042Z,696.00
2023-07-03T06:01:38.673Z,717.00
2023-07-03T06:02:38.676Z,755.00
2023-07-03T06:03:38.670Z,756.00
2023-07-03T06:04:38.707Z,753.00
2023-07-03T06:05:38.762Z,766.00
2023-07-03T06:06:38.791Z,773.00
2023-07-03T06:07:38.794Z,781.00
2023-07-03T06:08:38.835Z,789.00
2023-07-03T06:09:38.897Z,784.00
2023-07-03T06:10:38.956Z,780.00
2023-07-03T06:11:39.014Z,783.00
2023-07-03T06:12:39.041Z,792.00
2023-07-03T06:13:39.099Z,886.00
2023-07-03T06:14:39.090Z,819.00
2023-07-03T06:15:39.153Z,803.00
2023-07-03T06:16:39.180Z,797.00
2023-07-03T06:17:39.207Z,797.00
2023-07-03T06:18:39.272Z,818.00
2023-07-03T06:19:39.289Z,801.00
2023-07-03T06:20:39.308Z,794.00
2023-07-03T06:21:39.323Z,810.00
2023-07-03T06:22:39.333Z,817.00
2023-07-03T06:23:39.392Z,814.00
2023-07-03T06:24:39.490Z,816.00
2023-07-03T06:25:39.432Z,825.00
2023-07-03T06:26:39.521Z,832.00
2023-07-03T06:27:39.516Z,831.00
2023-07-03T06:28:39.562Z,824.00
2023-07-03T06:29:39.613Z,822.00
2023-07-03T06:30:39.627Z,821.00
2023-07-03T06:31:39.715Z,826.00
2023-07-03T06:32:39.702Z,825.00
2023-07-03T06:33:39.741Z,828.00
2023-07-03T06:34:39.709Z,826.00
2023-07-03T06:35:39.734Z,821.00
2023-07-03T06:36:40.096Z,825.00
2023-07-03T06:37:39.789Z,823.00
2023-07-03T06:38:40.036Z,825.00
2023-07-03T06:39:39.973Z,831.00
2023-07-03T06:40:39.844Z,836.00
2023-07-03T06:41:39.858Z,839.00
2023-07-03T06:42:40.268Z,859.00
2023-07-03T06:43:39.902Z,850.00
2023-07-03T06:44:39.953Z,842.00
2023-07-03T06:45:39.907Z,834.00
2023-07-03T06:46:40.016Z,832.00
2023-07-03T06:47:40.109Z,834.00
2023-07-03T06:48:40.003Z,832.00
2023-07-03T06:49:40.085Z,831.00
2023-07-03T06:50:40.044Z,829.00
2023-07-03T06:51:40.096Z,752.00
2023-07-03T06:52:40.101Z,738.00
2023-07-03T06:53:40.175Z,728.00
2023-07-03T06:54:40.176Z,769.00
2023-07-03T06:55:40.304Z,780.00
2023-07-03T06:56:40.597Z,771.00
2023-07-03T06:57:40.345Z,773.00
2023-07-03T06:58:40.360Z,786.00
2023-07-03T06:59:43.023Z,792.00
2023-07-03T07:00:40.383Z,794.00
2023-07-03T07:01:40.408Z,804.00
2023-07-03T07:02:40.373Z,810.00
2023-07-03T07:03:40.441Z,815.00
2023-07-03T07:04:40.377Z,819.00
2023-07-03T07:05:40.516Z,821.00
2023-07-03T07:06:40.588Z,817.00
2023-07-03T07:07:40.378Z,825.00
2023-07-03T07:08:40.308Z,829.00
2023-07-03T07:09:40.335Z,834.00
2023-07-03T07:10:40.328Z,840.00
2023-07-03T07:11:40.696Z,838.00
2023-07-03T07:12:40.309Z,840.00
2023-07-03T07:13:40.317Z,841.00
2023-07-03T07:14:40.268Z,839.00
2023-07-03T07:15:40.276Z,842.00
2023-07-03T07:16:40.245Z,844.00
2023-07-03T07:17:51.056Z,843.00
2023-07-03T07:18:41.311Z,839.00
2023-07-03T07:19:40.216Z,845.00
2023-07-03T07:20:40.256Z,843.00
2023-07-03T07:21:40.243Z,843.00
2023-07-03T07:22:40.228Z,849.00
2023-07-03T07:23:40.179Z,843.00
2023-07-03T07:24:40.188Z,844.00
2023-07-03T07:25:40.188Z,846.00
2023-07-03T07:26:40.154Z,853.00
2023-07-03T07:27:40.366Z,855.00
2023-07-03T07:28:40.161Z,853.00
2023-07-03T07:29:40.180Z,852.00
2023-07-03T07:30:40.236Z,850.00
2023-07-03T07:31:42.264Z,843.00
2023-07-03T07:32:40.222Z,839.00
2023-07-03T07:33:40.203Z,834.00
2023-07-03T07:34:40.191Z,836.00
2023-07-03T07:35:40.199Z,835.00
2023-07-03T07:36:40.206Z,834.00
2023-07-03T07:37:40.247Z,839.00
2023-07-03T07:38:40.756Z,835.00
2023-07-03T07:39:40.204Z,831.00
2023-07-03T07:40:40.219Z,828.00
2023-07-03T07:41:40.228Z,825.00
2023-07-03T07:42:40.414Z,825.00
2023-07-03T07:43:40.310Z,826.00
2023-07-03T07:44:40.247Z,781.00
2023-07-03T07:45:40.222Z,786.00
2023-07-03T07:46:40.285Z,803.00
2023-07-03T07:47:40.304Z,806.00
2023-07-03T07:48:40.282Z,809.00
2023-07-03T07:49:40.287Z,813.00
2023-07-03T07:50:40.317Z,817.00
2023-07-03T07:51:40.330Z,821.00
2023-07-03T07:52:40.630Z,832.00
2023-07-03T07:53:40.378Z,831.00
2023-07-03T07:54:40.696Z,831.00
2023-07-03T07:55:40.761Z,831.00
2023-07-03T07:56:40.434Z,830.00
2023-07-03T07:57:40.522Z,832.00
2023-07-03T07:58:40.542Z,837.00
2023-07-03T07:59:40.628Z,861.00
2023-07-03T08:00:40.533Z,841.00
2023-07-03T08:01:40.785Z,852.00
2023-07-03T08:02:40.814Z,848.00
2023-07-03T08:03:40.619Z,841.00
2023-07-03T08:04:40.832Z,841.00
2023-07-03T08:05:40.601Z,842.00
2023-07-03T08:06:40.705Z,843.00
2023-07-03T08:07:40.680Z,840.00
2023-07-03T08:08:40.785Z,846.00
2023-07-03T08:09:40.716Z,848.00
2023-07-03T08:10:41.036Z,845.00
2023-07-03T08:11:41.012Z,854.00
2023-07-03T08:12:43.144Z,848.00
2023-07-03T08:13:40.975Z,850.00
2023-07-03T08:14:41.003Z,861.00
2023-07-03T08:15:41.137Z,850.00
2023-07-03T08:16:41.270Z,849.00
2023-07-03T08:17:41.240Z,856.00
2023-07-03T08:18:41.609Z,858.00
2023-07-03T08:19:41.556Z,855.00
2023-07-03T08:20:41.384Z,939.00
2023-07-03T08:21:41.735Z,876.00
2023-07-03T08:22:41.546Z,865.00
2023-07-03T08:23:41.534Z,862.00
2023-07-03T08:24:41.604Z,876.00
2023-07-03T08:25:41.790Z,870.00
2023-07-03T08:26:41.712Z,867.00
2023-07-03T08:27:41.903Z,869.00
2023-07-03T08:28:42.954Z,868.00
2023-07-03T08:29:41.994Z,867.00
2023-07-03T08:30:41.850Z,862.00
2023-07-03T08:31:42.380Z,865.00
2023-07-03T08:32:42.111Z,865.00
2023-07-03T08:33:42.136Z,857.00
2023-07-03T08:37:42.005Z,762.00
2023-07-03T08:38:42.130Z,749.00
2023-07-03T08:39:41.954Z,735.00
2023-07-03T08:40:41.981Z,716.00
2023-07-03T08:41:41.964Z,709.00
2023-07-03T08:42:41.971Z,698.00
2023-07-03T08:43:41.988Z,690.00
2023-07-03T08:44:41.912Z,680.00
2023-07-03T08:45:41.967Z,676.00
2023-07-03T08:46:42.192Z,680.00
2023-07-03T08:47:42.019Z,683.00
2023-07-03T08:48:42.015Z,682.00
2023-07-03T08:49:41.865Z,676.00
2023-07-03T08:50:41.930Z,657.00
2023-07-03T08:51:41.947Z,658.00
2023-07-03T08:52:41.892Z,652.00
2023-07-03T08:53:41.893Z,642.00
2023-07-03T08:54:42.018Z,640.00
2023-07-03T08:55:41.875Z,641.00
2023-07-03T08:56:41.874Z,637.00
2023-07-03T08:57:41.893Z,630.00
2023-07-03T08:58:41.855Z,614.00
2023-07-03T08:59:41.847Z,606.00
2023-07-03T09:00:41.838Z,607.00
2023-07-03T09:01:41.927Z,604.00
2023-07-03T09:02:41.982Z,600.00
2023-07-03T09:03:42.094Z,600.00
2023-07-03T09:04:42.130Z,596.00
2023-07-03T09:05:41.807Z,593.00
2023-07-03T09:06:41.805Z,584.00
2023-07-03T09:07:41.839Z,582.00
2023-07-03T09:08:41.808Z,570.00
2023-07-03T09:09:41.856Z,568.00
2023-07-03T09:10:41.756Z,564.00
2023-07-03T09:11:43.114Z,569.00
2023-07-03T09:12:42.592Z,620.00
2023-07-03T09:13:42.494Z,600.00
2023-07-03T09:14:42.064Z,597.00
2023-07-03T09:15:42.114Z,593.00
2023-07-03T09:16:42.137Z,588.00
2023-07-03T09:17:42.222Z,588.00
2023-07-03T09:18:42.305Z,579.00
2023-07-03T09:19:42.368Z,581.00
2023-07-03T09:20:42.262Z,585.00
2023-07-03T09:21:42.300Z,587.00
2023-07-03T09:22:42.466Z,597.00
2023-07-03T09:23:42.487Z,613.00
2023-07-03T09:24:42.370Z,596.00
2023-07-03T09:25:42.416Z,608.00
2023-07-03T09:26:42.469Z,618.00
2023-07-03T09:27:42.697Z,621.00
2023-07-03T09:28:42.655Z,624.00
2023-07-03T09:29:42.673Z,618.00
2023-07-03T09:30:42.691Z,618.00
2023-07-03T09:31:42.800Z,620.00
2023-07-03T09:32:42.711Z,607.00
2023-07-03T09:33:42.745Z,596.00
2023-07-03T09:34:42.793Z,586.00
2023-07-03T09:36:43.118Z,593.00
2023-07-03T09:37:42.882Z,599.00
2023-07-03T09:38:42.923Z,598.00
2023-07-03T09:39:42.961Z,596.00
2023-07-03T09:40:42.989Z,595.00
2023-07-03T09:41:43.010Z,590.00
2023-07-03T09:42:43.020Z,547.00
2023-07-03T09:43:43.081Z,550.00
2023-07-03T09:44:43.148Z,556.00
2023-07-03T09:45:44.568Z,569.00
2023-07-03T09:46:43.272Z,579.00
2023-07-03T09:47:43.536Z,585.00
2023-07-03T09:48:43.214Z,591.00
2023-07-03T09:49:43.368Z,595.00
2023-07-03T09:50:50.868Z,600.00
2023-07-03T09:51:44.453Z,604.00
2023-07-03T09:52:47.238Z,598.00
2023-07-03T09:53:44.247Z,594.00
2023-07-03T09:54:43.194Z,589.00
2023-07-03T09:55:43.241Z,578.00
2023-07-03T09:56:43.211Z,572.00
2023-07-03T09:57:43.231Z,571.00
2023-07-03T09:58:43.332Z,566.00
2023-07-03T09:59:43.160Z,568.00
2023-07-03T10:00:44.073Z,565.00
2023-07-03T10:03:43.240Z,563.00
2023-07-03T10:06:43.228Z,555.00
2023-07-03T10:07:43.475Z,557.00
2023-07-03T10:08:44.009Z,559.00
2023-07-03T10:11:43.285Z,561.00
2023-07-03T10:12:43.139Z,563.00
2023-07-03T10:13:44.063Z,565.00
2023-07-03T10:14:43.780Z,561.00
2023-07-03T10:15:43.068Z,563.00
2023-07-03T10:16:43.112Z,562.00
2023-07-03T10:17:43.245Z,554.00
2023-07-03T10:18:43.048Z,551.00
2023-07-03T10:19:43.048Z,551.00
2023-07-03T10:20:43.075Z,555.00
2023-07-03T10:21:43.684Z,556.00
2023-07-03T10:22:43.174Z,575.00
2023-07-03T10:23:43.386Z,581.00
2023-07-03T10:24:43.031Z,580.00
2023-07-03T10:25:43.013Z,576.00
2023-07-03T10:26:42.993Z,568.00
2023-07-03T10:27:42.991Z,561.00
2023-07-03T10:28:42.983Z,555.00
2023-07-03T10:29:43.014Z,549.00
2023-07-03T10:30:42.925Z,544.00
2023-07-03T10:31:46.083Z,539.00
2023-07-03T10:32:42.948Z,533.00
2023-07-03T10:33:42.936Z,528.00
2023-07-03T10:34:42.958Z,523.00
2023-07-03T10:35:42.933Z,516.00
2023-07-03T10:36:42.979Z,508.00
2023-07-03T10:37:42.918Z,502.00
2023-07-03T10:38:42.919Z,495.00
2023-07-03T10:39:43.047Z,491.00
2023-07-03T10:40:42.879Z,487.00
2023-07-03T10:41:42.910Z,484.00
2023-07-03T10:42:42.918Z,481.00
2023-07-03T10:43:42.876Z,478.00
2023-07-03T10:44:42.870Z,475.00
2023-07-03T10:45:42.906Z,475.00
2023-07-03T10:46:43.586Z,473.00
2023-07-03T10:47:42.868Z,472.00
2023-07-03T10:48:42.801Z,468.00
2023-07-03T10:49:42.840Z,464.00
2023-07-03T10:50:42.795Z,458.00
2023-07-03T10:51:42.807Z,455.00
2023-07-03T10:52:42.812Z,451.00
2023-07-03T10:53:42.776Z,452.00
2023-07-03T10:54:42.799Z,451.00
2023-07-03T10:55:42.821Z,446.00
2023-07-03T10:56:42.746Z,447.00
2023-07-03T10:57:42.737Z,448.00
2023-07-03T10:58:42.776Z,446.00
2023-07-03T10:59:42.765Z,446.00
2023-07-03T11:00:42.764Z,445.00
2023-07-03T11:01:42.758Z,443.00
2023-07-03T11:02:42.817Z,442.00
2023-07-03T11:03:43.835Z,441.00
2023-07-03T11:04:42.791Z,440.00
2023-07-03T11:05:42.697Z,439.00
2023-07-03T11:06:42.708Z,439.00
2023-07-03T11:07:42.702Z,437.00
2023-07-03T11:08:42.682Z,438.00
2023-07-03T11:09:42.697Z,438.00
2023-07-03T11:10:42.657Z,438.00
2023-07-03T11:11:42.840Z,437.00
2023-07-03T11:12:42.637Z,438.00
2023-07-03T11:13:42.719Z,440.00
2023-07-03T11:14:42.678Z,442.00
2023-07-03T11:15:42.656Z,444.00
2023-07-03T11:16:42.736Z,445.00
2023-07-03T11:22:42.640Z,442.00
2023-07-03T11:23:42.614Z,444.00
2023-07-03T11:24:42.552Z,446.00
2023-07-03T11:28:42.573Z,441.00
2023-07-03T11:29:42.538Z,442.00
2023-07-03T11:30:42.524Z,442.00
2023-07-03T11:31:42.566Z,442.00
2023-07-03T11:32:42.503Z,443.00
2023-07-03T11:36:50.399Z,442.00
2023-07-03T11:40:42.525Z,443.00
2023-07-03T11:43:42.431Z,443.00
2023-07-03T11:44:42.410Z,442.00
2023-07-03T11:45:42.419Z,441.00
2023-07-03T11:46:42.460Z,438.00
2023-07-03T11:47:42.448Z,437.00
2023-07-03T11:48:42.439Z,437.00
2023-07-03T11:49:42.395Z,434.00
2023-07-03T11:50:42.385Z,431.00
2023-07-03T11:51:42.396Z,430.00
2023-07-03T11:52:42.595Z,430.00
2023-07-03T11:53:42.375Z,428.00
2023-07-03T11:54:42.353Z,428.00
2023-07-03T11:55:42.365Z,427.00
2023-07-03T11:56:42.359Z,429.00
2023-07-03T11:57:42.327Z,428.00
2023-07-03T11:58:42.358Z,428.00
2023-07-03T11:59:42.324Z,429.00
2023-07-03T12:00:42.673Z,428.00
2023-07-03T12:01:42.294Z,429.00
2023-07-03T12:02:42.390Z,429.00
2023-07-03T12:03:42.306Z,428.00
2023-07-03T12:04:44.751Z,430.00
2023-07-03T12:05:42.390Z,428.00
2023-07-03T12:06:42.381Z,428.00
2023-07-03T12:07:42.329Z,426.00
2023-07-03T12:08:42.277Z,428.00
2023-07-03T12:09:42.258Z,430.00
2023-07-03T12:10:42.319Z,428.00
2023-07-03T12:11:42.228Z,428.00
2023-07-03T12:12:42.222Z,429.00
2023-07-03T12:13:42.270Z,429.00
2023-07-03T12:14:42.254Z,429.00
2023-07-03T12:15:42.217Z,430.00
2023-07-03T12:16:42.244Z,429.00
2023-07-03T12:17:42.224Z,429.00
2023-07-03T12:18:42.213Z,429.00
2023-07-03T12:19:42.195Z,428.00
2023-07-03T12:20:42.210Z,426.00
2023-07-03T12:21:42.181Z,426.00
2023-07-03T12:22:42.196Z,427.00
2023-07-03T12:23:42.182Z,427.00
2023-07-03T12:24:42.184Z,429.00
2023-07-03T12:25:42.159Z,432.00
2023-07-03T12:26:42.196Z,433.00
2023-07-03T12:27:42.140Z,433.00
2023-07-03T12:28:42.133Z,431.00
2023-07-03T12:29:42.153Z,431.00
2023-07-03T12:30:42.133Z,428.00
2023-07-03T12:31:42.255Z,429.00
2023-07-03T12:32:42.128Z,430.00
2023-07-03T12:33:42.159Z,429.00
2023-07-03T12:34:42.190Z,428.00
2023-07-03T12:35:42.245Z,428.00
2023-07-03T12:36:47.385Z,429.00
2023-07-03T12:37:43.276Z,428.00
2023-07-03T12:38:42.230Z,428.00
2023-07-03T12:39:42.268Z,427.00
2023-07-03T12:40:42.278Z,428.00
2023-07-03T12:41:42.407Z,429.00
2023-07-03T12:42:42.251Z,430.00
2023-07-03T12:43:42.230Z,429.00
2023-07-03T12:44:42.268Z,428.00
2023-07-03T12:45:42.169Z,427.00
2023-07-03T12:46:42.289Z,428.00
2023-07-03T12:47:42.264Z,429.00
2023-07-03T12:48:42.173Z,429.00
2023-07-03T12:49:42.185Z,426.00
2023-07-03T12:50:42.183Z,424.00
2023-07-03T12:51:42.268Z,424.00
2023-07-03T12:52:42.185Z,421.00
2023-07-03T12:53:42.163Z,419.00
2023-07-03T12:54:42.219Z,419.00